Time;durP1;ratioP1;P1;durP2;ratioP2;P2;SDS_P1;SDS_P2;PMS_P1;PMS_P2;Temp;Humidity;BMP_temperature;BMP_pressure;BME280_temperature;BME280_humidity;BME280_pressure;Samples;Min_cycle;Max_cycle;Signal;HPM_P1;HPM_P2
2022/10/15 00:00:07;;;;;;;;;;;;;;;10.13;83.51;100416.75;86184;1281;95924;-54
2022/10/15 00:02:35;;;;;;;;;;;;;;;10.12;83.57;100418.66;86176;1290;80374;-59
2022/10/15 00:04:42;;;;;;;;;;;;;;;10.10;83.53;100417.45;86147;1290;83065;-59
2022/10/15 00:06:49;;;;;;;;;;;;;;;10.06;83.62;100419.61;86189;1294;97957;-57
2022/10/15 00:08:55;;;;;;;;;;;;;;;10.07;83.74;100416.88;86215;1294;88398;-58
2022/10/15 00:11:07;;;;;;;;;;;;;;;10.03;83.76;100419.72;86132;1293;92332;-58
2022/10/15 00:13:14;;;;;;;;;;;;;;;9.98;83.76;100420.02;86203;1296;80987;-60
2022/10/15 00:15:23;;;;;;;;;;;;;;;9.95;83.68;100419.64;86198;1295;82421;-57
2022/10/15 00:17:30;;;;;;;;;;;;;;;9.90;83.65;100416.41;86192;1293;97152;-57
2022/10/15 00:19:37;;;;;;;;;;;;;;;9.87;83.74;100412.13;86227;1288;87288;-51
2022/10/15 00:21:45;;;;;;;;;;;;;;;9.85;83.79;100409.17;86230;1294;94444;-58
2022/10/15 00:23:52;;;;;;;;;;;;;;;9.83;83.72;100410.11;86201;1290;82730;-57
2022/10/15 00:26:07;;;;;;;;;;;;;;;9.79;83.70;100413.33;86217;1293;83101;-58
2022/10/15 00:28:14;;;;;;;;;;;;;;;9.79;83.79;100412.95;86238;1295;97651;-56
2022/10/15 00:30:21;;;;;;;;;;;;;;;9.76;83.82;100411.30;86179;1294;88442;-54
2022/10/15 00:32:28;;;;;;;;;;;;;;;9.74;83.83;100409.09;86213;1294;94170;-58
2022/10/15 00:34:35;;;;;;;;;;;;;;;9.71;83.82;100404.73;86170;1296;82352;-54
2022/10/15 00:36:43;;;;;;;;;;;;;;;9.67;83.79;100402.67;86152;1296;81325;-57
2022/10/15 00:38:51;;;;;;;;;;;;;;;9.63;83.93;100407.47;86180;1294;97516;-56
2022/10/15 00:40:58;;;;;;;;;;;;;;;9.63;84.03;100406.64;86186;1293;88470;-55
2022/10/15 00:43:09;;;;;;;;;;;;;;;9.62;84.14;100402.59;86142;1293;94125;-57
2022/10/15 00:45:18;;;;;;;;;;;;;;;9.61;84.16;100397.98;86131;1290;82541;-57
2022/10/15 00:47:35;;;;;;;;;;;;;;;9.62;84.23;100402.19;86184;1288;82241;-59
2022/10/15 00:49:44;;;;;;;;;;;;;;;9.59;84.15;100400.06;86173;1288;97854;-60
2022/10/15 00:52:01;;;;;;;;;;;;;;;9.58;84.11;100399.64;86217;1294;87133;-55
2022/10/15 00:54:10;;;;;;;;;;;;;;;9.56;84.24;100394.04;86132;1290;94577;-55
2022/10/15 00:56:22;;;;;;;;;;;;;;;9.54;84.37;100393.75;86189;1290;80973;-55
2022/10/15 00:58:31;;;;;;;;;;;;;;;9.51;84.52;100390.25;86213;1293;79491;-58
2022/10/15 01:00:39;;;;;;;;;;;;;;;9.52;84.66;100392.88;86197;1289;96873;-53
2022/10/15 01:02:47;;;;;;;;;;;;;;;9.55;84.74;100392.86;86244;1296;88425;-59
2022/10/15 01:04:55;;;;;;;;;;;;;;;9.57;84.69;100393.74;86211;1294;95921;-59
2022/10/15 01:07:02;;;;;;;;;;;;;;;9.55;84.85;100391.16;86185;1296;81593;-58
2022/10/15 01:09:11;;;;;;;;;;;;;;;9.59;84.87;100393.25;86201;1288;82316;-55
2022/10/15 01:11:29;;;;;;;;;;;;;;;9.62;85.07;100385.48;86255;1289;95373;-51
2022/10/15 01:13:40;;;;;;;;;;;;;;;9.61;85.08;100384.38;86184;1289;88071;-58
2022/10/15 01:15:54;;;;;;;;;;;;;;;9.63;85.16;100382.69;86207;1294;95389;-57
2022/10/15 01:18:06;;;;;;;;;;;;;;;9.60;85.19;100378.75;86155;1291;81719;-57
2022/10/15 01:20:48;;;;;;;;;;;;;;;9.59;85.16;100385.40;86190;1292;81013;-57
2022/10/15 01:23:11;;;;;;;;;;;;;;;9.57;85.19;100386.13;86138;1292;98193;-59
2022/10/15 01:25:29;;;;;;;;;;;;;;;9.53;85.28;100384.40;86165;1293;88399;-59
2022/10/15 01:27:39;;;;;;;;;;;;;;;9.53;85.22;100389.30;86182;1296;95461;-56
2022/10/15 01:30:23;;;;;;;;;;;;;;;9.49;85.08;100386.91;86176;1293;82616;-58
2022/10/15 01:32:35;;;;;;;;;;;;;;;9.41;85.10;100380.81;86198;1293;80495;-57
2022/10/15 01:34:47;;;;;;;;;;;;;;;9.38;85.21;100380.34;86146;1293;96449;-58
2022/10/15 01:37:03;;;;;;;;;;;;;;;9.38;85.34;100378.89;86182;1290;88148;-58
2022/10/15 01:39:14;;;;;;;;;;;;;;;9.37;85.47;100382.27;86208;1296;95580;-57
2022/10/15 01:41:27;;;;;;;;;;;;;;;9.38;85.57;100389.09;86187;1287;81918;-55
2022/10/15 01:43:39;;;;;;;;;;;;;;;9.36;85.36;100377.36;86245;1295;83086;-56
2022/10/15 01:45:49;;;;;;;;;;;;;;;9.37;85.47;100375.90;86213;1296;98306;-57
2022/10/15 01:47:58;;;;;;;;;;;;;;;9.35;85.50;100380.63;86235;1290;86980;-56
2022/10/15 01:50:08;;;;;;;;;;;;;;;9.28;85.39;100375.23;86231;1293;94221;-54
2022/10/15 01:52:18;;;;;;;;;;;;;;;9.26;85.48;100375.08;86235;1293;81820;-56
2022/10/15 01:54:28;;;;;;;;;;;;;;;9.21;85.44;100373.89;86251;1293;81073;-59
2022/10/15 01:56:37;;;;;;;;;;;;;;;9.20;85.31;100373.27;86188;1290;99027;-60
2022/10/15 01:58:47;;;;;;;;;;;;;;;9.18;85.41;100363.66;86222;1290;88349;-59
2022/10/15 02:00:57;;;;;;;;;;;;;;;9.16;85.40;100368.07;86196;1291;95396;-59
2022/10/15 02:03:04;;;;;;;;;;;;;;;9.15;85.51;100366.59;86201;1296;81649;-55
2022/10/15 02:05:15;;;;;;;;;;;;;;;9.11;85.50;100364.65;86188;1293;80930;-55
2022/10/15 02:07:30;;;;;;;;;;;;;;;9.09;85.55;100360.56;86178;1287;98416;-57
2022/10/15 02:09:45;;;;;;;;;;;;;;;9.07;85.66;100365.13;86177;1289;88316;-54
2022/10/15 02:12:01;;;;;;;;;;;;;;;9.10;85.68;100359.95;86155;1293;95467;-54
2022/10/15 02:14:15;;;;;;;;;;;;;;;9.10;85.59;100361.58;86138;1293;79646;-57
2022/10/15 02:16:27;;;;;;;;;;;;;;;9.06;85.68;100353.74;86170;1289;82980;-58
2022/10/15 02:18:40;;;;;;;;;;;;;;;9.05;85.77;100351.64;86184;1295;98588;-58
2022/10/15 02:20:55;;;;;;;;;;;;;;;9.04;85.87;100348.41;86211;1293;88917;-57
2022/10/15 02:23:08;;;;;;;;;;;;;;;9.06;85.83;100348.90;86209;1293;95194;-58
2022/10/15 02:25:20;;;;;;;;;;;;;;;9.07;85.90;100346.88;86209;1288;82453;-59
2022/10/15 02:27:28;;;;;;;;;;;;;;;9.09;85.93;100345.05;86189;1288;82411;-57
2022/10/15 02:29:36;;;;;;;;;;;;;;;9.09;86.08;100346.25;86220;1293;98881;-58
2022/10/15 02:31:47;;;;;;;;;;;;;;;9.07;86.04;100339.26;86234;1293;87801;-56
2022/10/15 02:34:01;;;;;;;;;;;;;;;9.06;85.99;100337.28;86236;1288;95686;-57
2022/10/15 02:36:10;;;;;;;;;;;;;;;9.06;86.32;100330.58;86213;1296;82465;-58
2022/10/15 02:38:21;;;;;;;;;;;;;;;9.14;86.55;100327.48;86227;1294;82888;-59
2022/10/15 02:40:32;;;;;;;;;;;;;;;9.17;86.52;100331.48;86226;1291;98742;-58
2022/10/15 02:42:39;;;;;;;;;;;;;;;9.18;86.83;100331.33;86245;1289;89042;-58
2022/10/15 02:44:46;;;;;;;;;;;;;;;9.13;86.72;100333.72;86190;1289;93943;-59
2022/10/15 02:46:54;;;;;;;;;;;;;;;9.13;86.60;100328.84;86199;1296;81863;-58
2022/10/15 02:49:03;;;;;;;;;;;;;;;9.13;86.77;100328.56;86162;1288;80970;-58
2022/10/15 02:51:11;;;;;;;;;;;;;;;9.10;86.62;100330.71;86158;1293;98624;-58
2022/10/15 02:53:17;;;;;;;;;;;;;;;9.05;86.68;100328.30;86184;1296;87545;-58
2022/10/15 02:55:24;;;;;;;;;;;;;;;9.00;86.72;100332.02;86184;1293;94953;-57
2022/10/15 02:57:32;;;;;;;;;;;;;;;9.01;86.64;100331.63;86160;1292;81853;-56
2022/10/15 02:59:40;;;;;;;;;;;;;;;9.04;86.76;100332.86;86209;1294;82844;-57
2022/10/15 03:01:51;;;;;;;;;;;;;;;8.99;86.77;100322.86;86211;1294;96648;-58
2022/10/15 03:03:58;;;;;;;;;;;;;;;8.98;86.82;100327.98;86172;1288;88523;-59
2022/10/15 03:06:10;;;;;;;;;;;;;;;8.98;86.81;100328.70;86160;1291;94689;-60
2022/10/15 03:08:17;;;;;;;;;;;;;;;8.98;86.77;100328.60;86190;1293;81879;-55
2022/10/15 03:10:24;;;;;;;;;;;;;;;8.94;86.77;100325.98;86186;1293;82631;-56
2022/10/15 03:12:31;;;;;;;;;;;;;;;8.92;86.79;100324.20;86191;1294;97750;-55
2022/10/15 03:14:38;;;;;;;;;;;;;;;8.87;86.86;100330.86;86221;1290;88157;-57
2022/10/15 03:16:49;;;;;;;;;;;;;;;8.88;86.87;100329.14;86249;1294;94523;-58
2022/10/15 03:18:56;;;;;;;;;;;;;;;8.86;86.85;100333.63;86249;1295;82286;-57
2022/10/15 03:21:06;;;;;;;;;;;;;;;8.87;86.86;100331.77;86250;1294;82964;-59
2022/10/15 03:23:14;;;;;;;;;;;;;;;8.86;86.82;100329.16;86276;1296;98006;-58
2022/10/15 03:25:21;;;;;;;;;;;;;;;8.87;86.92;100331.36;86229;1288;87768;-58
2022/10/15 03:27:30;;;;;;;;;;;;;;;8.86;86.93;100332.96;86210;1293;94901;-56
2022/10/15 03:29:40;;;;;;;;;;;;;;;8.85;86.84;100335.96;86165;1293;82410;-57
2022/10/15 03:31:47;;;;;;;;;;;;;;;8.84;86.92;100334.09;86188;1293;82638;-56
2022/10/15 03:33:54;;;;;;;;;;;;;;;8.86;86.90;100330.66;86081;1296;96850;-57
2022/10/15 03:36:01;;;;;;;;;;;;;;;8.83;87.08;100325.90;86170;1293;87622;-57
2022/10/15 03:38:09;;;;;;;;;;;;;;;8.85;87.10;100321.91;86163;1293;93202;-52
2022/10/15 03:40:17;;;;;;;;;;;;;;;8.86;87.16;100327.23;86189;1294;80198;-55
2022/10/15 03:42:24;;;;;;;;;;;;;;;8.91;87.28;100325.22;86187;1296;82110;-57
2022/10/15 03:44:34;;;;;;;;;;;;;;;8.92;87.39;100329.75;86153;1296;96129;-55
2022/10/15 03:46:41;;;;;;;;;;;;;;;8.91;87.48;100325.55;86157;1293;87490;-57
2022/10/15 03:48:51;;;;;;;;;;;;;;;8.93;87.41;100321.48;86171;1288;94762;-55
2022/10/15 03:51:00;;;;;;;;;;;;;;;8.94;87.41;100317.52;86188;1294;80221;-54
2022/10/15 03:53:07;;;;;;;;;;;;;;;8.96;87.74;100310.41;86177;1285;82336;-55
2022/10/15 03:55:14;;;;;;;;;;;;;;;8.97;87.72;100306.91;86193;1296;97412;-56
2022/10/15 03:57:23;;;;;;;;;;;;;;;8.99;87.72;100305.46;86244;1293;86480;-58
2022/10/15 03:59:32;;;;;;;;;;;;;;;9.06;87.88;100299.77;86160;1287;95153;-56
2022/10/15 04:01:39;;;;;;;;;;;;;;;9.09;87.88;100296.80;86173;1293;80897;-58
2022/10/15 04:03:47;;;;;;;;;;;;;;;9.14;88.04;100287.02;86226;1288;83065;-56
2022/10/15 04:05:55;;;;;;;;;;;;;;;9.22;88.02;100292.66;86165;1288;98601;-56
2022/10/15 04:08:02;;;;;;;;;;;;;;;9.25;87.94;100293.99;86180;1292;88556;-58
2022/10/15 04:10:10;;;;;;;;;;;;;;;9.29;88.04;100290.86;86202;1296;95591;-57
2022/10/15 04:12:18;;;;;;;;;;;;;;;9.32;88.08;100286.60;86206;1292;81076;-57
2022/10/15 04:14:26;;;;;;;;;;;;;;;9.36;88.15;100286.40;86134;1292;81745;-59
2022/10/15 04:16:33;;;;;;;;;;;;;;;9.39;88.26;100286.29;86212;1294;97952;-58
2022/10/15 04:18:40;;;;;;;;;;;;;;;9.45;88.28;100284.30;86178;1296;87957;-59
2022/10/15 04:20:48;;;;;;;;;;;;;;;9.50;88.31;100291.14;86170;1288;93388;-58
2022/10/15 04:22:56;;;;;;;;;;;;;;;9.53;88.51;100289.14;86176;1288;80510;-58
2022/10/15 04:25:04;;;;;;;;;;;;;;;9.56;88.53;100292.72;86142;1288;82020;-58
2022/10/15 04:27:12;;;;;;;;;;;;;;;9.62;88.48;100285.79;86177;1293;97964;-58
2022/10/15 04:29:19;;;;;;;;;;;;;;;9.63;88.58;100285.60;86163;1287;89077;-58
2022/10/15 04:31:28;;;;;;;;;;;;;;;9.64;88.39;100287.39;86171;1293;95398;-58
2022/10/15 04:33:36;;;;;;;;;;;;;;;9.68;88.33;100283.02;86143;1288;82401;-58
2022/10/15 04:35:42;;;;;;;;;;;;;;;9.70;88.38;100284.95;86142;1295;81706;-58
2022/10/15 04:37:50;;;;;;;;;;;;;;;9.72;88.31;100286.52;86170;1293;99158;-55
2022/10/15 04:39:59;;;;;;;;;;;;;;;9.73;88.28;100285.59;86245;1293;87550;-55
2022/10/15 04:42:06;;;;;;;;;;;;;;;9.75;88.28;100286.10;86167;1288;95520;-56
2022/10/15 04:44:13;;;;;;;;;;;;;;;9.75;88.17;100284.43;86194;1293;81867;-60
2022/10/15 04:46:21;;;;;;;;;;;;;;;9.77;88.31;100282.36;86196;1293;83225;-58
2022/10/15 04:48:30;;;;;;;;;;;;;;;9.79;88.23;100280.02;85904;1292;420311;-57
2022/10/15 04:50:37;;;;;;;;;;;;;;;9.79;88.16;100281.39;86275;1296;87386;-58
2022/10/15 04:52:44;;;;;;;;;;;;;;;9.83;88.04;100277.95;86231;1296;94057;-56
2022/10/15 04:54:51;;;;;;;;;;;;;;;9.82;88.25;100280.77;86188;1288;81953;-55
2022/10/15 04:56:59;;;;;;;;;;;;;;;9.82;88.22;100281.83;86220;1288;83253;-54
2022/10/15 04:59:08;;;;;;;;;;;;;;;9.84;88.27;100279.37;86177;1288;96850;-52
2022/10/15 05:01:18;;;;;;;;;;;;;;;9.89;88.27;100277.53;86247;1287;87718;-55
2022/10/15 05:03:25;;;;;;;;;;;;;;;9.93;88.31;100277.88;86198;1292;94744;-53
2022/10/15 05:05:32;;;;;;;;;;;;;;;9.97;88.32;100276.39;86190;1290;78542;-59
2022/10/15 05:07:39;;;;;;;;;;;;;;;10.02;88.35;100279.78;86194;1293;81381;-55
2022/10/15 05:09:46;;;;;;;;;;;;;;;10.02;88.23;100280.36;86204;1288;98017;-54
2022/10/15 05:11:54;;;;;;;;;;;;;;;10.04;88.43;100283.92;86173;1289;88440;-54
2022/10/15 05:14:01;;;;;;;;;;;;;;;10.05;88.20;100286.27;86190;1296;94763;-59
2022/10/15 05:16:15;;;;;;;;;;;;;;;10.05;88.28;100285.17;86083;1297;79479;-59
2022/10/15 05:18:22;;;;;;;;;;;;;;;10.07;88.24;100282.83;86223;1288;82696;-58
2022/10/15 05:20:29;;;;;;;;;;;;;;;10.12;88.28;100283.48;86169;1288;97827;-59
2022/10/15 05:22:36;;;;;;;;;;;;;;;10.18;88.14;100278.64;86151;1296;87789;-58
2022/10/15 05:24:45;;;;;;;;;;;;;;;10.20;88.26;100280.36;86189;1293;95685;-59
2022/10/15 05:26:53;;;;;;;;;;;;;;;10.21;88.12;100284.60;86080;1297;81822;-57
2022/10/15 05:29:01;;;;;;;;;;;;;;;10.23;88.15;100281.39;86214;1288;81827;-56
2022/10/15 05:31:10;;;;;;;;;;;;;;;10.27;88.13;100281.23;86191;1293;99272;-55
2022/10/15 05:33:17;;;;;;;;;;;;;;;10.31;87.99;100281.83;86178;1292;87937;-57
2022/10/15 05:35:24;;;;;;;;;;;;;;;10.40;87.89;100286.11;86194;1293;95422;-55
2022/10/15 05:37:31;;;;;;;;;;;;;;;10.42;87.97;100291.08;86114;1292;82666;-55
2022/10/15 05:39:38;;;;;;;;;;;;;;;10.43;87.85;100296.04;86216;1296;83272;-55
2022/10/15 05:41:46;;;;;;;;;;;;;;;10.46;87.89;100300.30;86204;1287;98807;-58
2022/10/15 05:43:54;;;;;;;;;;;;;;;10.48;87.88;100297.67;86224;1294;87569;-58
2022/10/15 05:46:01;;;;;;;;;;;;;;;10.54;87.83;100293.71;86179;1280;94864;-59
2022/10/15 05:48:09;;;;;;;;;;;;;;;10.62;87.76;100298.04;86157;1293;81835;-56
2022/10/15 05:50:17;;;;;;;;;;;;;;;10.73;87.65;100296.56;86187;1288;80406;-57
2022/10/15 05:52:24;;;;;;;;;;;;;;;10.82;87.53;100295.95;86188;1293;98129;-57
2022/10/15 05:54:31;;;;;;;;;;;;;;;10.92;87.47;100294.75;86192;1288;88601;-53
2022/10/15 05:56:38;;;;;;;;;;;;;;;11.05;87.39;100293.16;86152;1293;95342;-57
2022/10/15 05:58:45;;;;;;;;;;;;;;;11.13;87.35;100293.81;86179;1294;79035;-56
2022/10/15 06:00:58;;;;;;;;;;;;;;;11.30;87.34;100292.75;86180;1296;82593;-54
2022/10/15 06:03:05;;;;;;;;;;;;;;;11.44;86.95;100292.60;86233;1289;99259;-52
2022/10/15 06:05:12;;;;;;;;;;;;;;;11.53;86.66;100292.33;86172;1290;87284;-55
2022/10/15 06:07:20;;;;;;;;;;;;;;;11.62;86.48;100292.08;86174;1294;94788;-55
2022/10/15 06:09:27;;;;;;;;;;;;;;;11.65;86.35;100296.64;86188;1288;81606;-56
2022/10/15 06:11:35;;;;;;;;;;;;;;;11.71;86.26;100298.66;86198;1294;80627;-55
2022/10/15 06:13:44;;;;;;;;;;;;;;;11.77;86.06;100297.70;86165;1294;98343;-59
2022/10/15 06:15:50;;;;;;;;;;;;;;;11.82;86.03;100299.52;86218;1293;89039;-59
2022/10/15 06:18:01;;;;;;;;;;;;;;;11.88;85.97;100299.64;86217;1289;94061;-53
2022/10/15 06:20:10;;;;;;;;;;;;;;;11.94;85.84;100297.56;86157;1293;81786;-59
2022/10/15 06:22:19;;;;;;;;;;;;;;;11.98;85.61;100296.70;86205;1288;81540;-55
2022/10/15 06:24:25;;;;;;;;;;;;;;;12.04;85.42;100297.67;86206;1293;96777;-57
2022/10/15 06:26:33;;;;;;;;;;;;;;;12.12;85.41;100299.05;86260;1290;89387;-56
2022/10/15 06:28:40;;;;;;;;;;;;;;;12.18;85.11;100303.34;86255;1292;95544;-61
2022/10/15 06:30:48;;;;;;;;;;;;;;;12.26;84.89;100306.33;86230;1296;80344;-60
2022/10/15 06:32:56;;;;;;;;;;;;;;;12.28;84.78;100306.37;86247;1294;80663;-56
2022/10/15 06:35:04;;;;;;;;;;;;;;;12.35;84.64;100311.98;86231;1288;98009;-59
2022/10/15 06:37:11;;;;;;;;;;;;;;;12.40;84.31;100310.38;86207;1288;86987;-57
2022/10/15 06:39:21;;;;;;;;;;;;;;;12.37;83.99;100312.41;86167;1288;95963;-58
2022/10/15 06:41:28;;;;;;;;;;;;;;;12.33;83.96;100314.63;86205;1291;82572;-58
2022/10/15 06:43:35;;;;;;;;;;;;;;;12.27;83.91;100315.24;86166;1293;81986;-56
2022/10/15 06:45:43;;;;;;;;;;;;;;;12.20;83.85;100317.17;86170;1293;99151;-58
2022/10/15 06:47:50;;;;;;;;;;;;;;;12.18;83.84;100316.11;86179;1293;87387;-57
2022/10/15 06:49:58;;;;;;;;;;;;;;;12.19;83.80;100319.34;86177;1292;95247;-55
2022/10/15 06:52:07;;;;;;;;;;;;;;;12.27;83.90;100322.88;86194;1291;81463;-58
2022/10/15 06:54:15;;;;;;;;;;;;;;;12.36;83.79;100321.79;86210;1288;82726;-58
2022/10/15 06:56:22;;;;;;;;;;;;;;;12.52;83.68;100319.55;86211;1296;97605;-58
2022/10/15 06:58:31;;;;;;;;;;;;;;;12.61;83.59;100324.66;86190;1294;88413;-57
2022/10/15 07:00:38;;;;;;;;;;;;;;;12.69;83.24;100324.71;86169;1288;93787;-58
2022/10/15 07:02:45;;;;;;;;;;;;;;;12.76;83.25;100324.36;86168;1295;81292;-56
2022/10/15 07:04:54;;;;;;;;;;;;;;;12.90;83.18;100324.23;86221;1290;82508;-55
2022/10/15 07:07:01;;;;;;;;;;;;;;;12.99;83.25;100327.32;86229;1289;98328;-59
2022/10/15 07:09:08;;;;;;;;;;;;;;;13.14;83.22;100320.79;86205;1291;88666;-59
2022/10/15 07:11:17;;;;;;;;;;;;;;;13.29;83.04;100318.61;86236;1294;94127;-57
2022/10/15 07:13:25;;;;;;;;;;;;;;;13.58;82.74;100313.40;86189;1289;79800;-55
2022/10/15 07:15:32;;;;;;;;;;;;;;;13.98;82.20;100314.25;86236;1290;81064;-58
2022/10/15 07:17:39;;;;;;;;;;;;;;;14.12;81.82;100314.49;86214;1288;97551;-56
2022/10/15 07:19:46;;;;;;;;;;;;;;;14.25;81.91;100313.61;86204;1293;87709;-56
2022/10/15 07:21:53;;;;;;;;;;;;;;;14.71;81.90;100317.94;86213;1296;93949;-57
2022/10/15 07:24:00;;;;;;;;;;;;;;;15.20;80.93;100313.95;86171;1288;80968;-59
2022/10/15 07:26:07;;;;;;;;;;;;;;;15.41;80.52;100314.80;86186;1291;81934;-58
2022/10/15 07:28:14;;;;;;;;;;;;;;;15.69;80.00;100315.57;86186;1294;98879;-56
2022/10/15 07:30:22;;;;;;;;;;;;;;;15.52;79.35;100317.44;86188;1293;89155;-56
2022/10/15 07:32:29;;;;;;;;;;;;;;;15.37;78.86;100315.28;86188;1288;93495;-59
2022/10/15 07:34:36;;;;;;;;;;;;;;;15.12;78.53;100314.95;86168;1293;79959;-56
2022/10/15 07:36:44;;;;;;;;;;;;;;;14.96;78.45;100318.75;86163;1290;83443;-58
2022/10/15 07:38:51;;;;;;;;;;;;;;;15.00;78.50;100314.48;86176;1290;98093;-58
2022/10/15 07:41:01;;;;;;;;;;;;;;;15.33;78.39;100310.04;86169;1295;88708;-59
2022/10/15 07:43:11;;;;;;;;;;;;;;;15.25;77.73;100306.63;86170;1290;95008;-59
2022/10/15 07:45:19;;;;;;;;;;;;;;;15.11;77.58;100303.61;86178;1294;79283;-57
2022/10/15 07:47:28;;;;;;;;;;;;;;;15.17;77.71;100299.84;86218;1294;82361;-60
2022/10/15 07:49:35;;;;;;;;;;;;;;;15.15;76.99;100303.91;86179;1291;97533;-59
2022/10/15 07:51:46;;;;;;;;;;;;;;;15.14;77.12;100304.63;86030;1299;90687;-58
2022/10/15 07:53:54;;;;;;;;;;;;;;;15.12;77.37;100303.01;86188;1298;95811;-56
2022/10/15 07:56:06;;;;;;;;;;;;;;;15.14;77.24;100306.89;86165;1290;78852;-55
2022/10/15 07:58:13;;;;;;;;;;;;;;;15.19;76.92;100308.60;86225;1281;81579;-56
2022/10/15 08:00:20;;;;;;;;;;;;;;;15.22;76.99;100304.44;86161;1291;98682;-58
2022/10/15 08:02:28;;;;;;;;;;;;;;;15.53;77.08;100304.18;86214;1290;87998;-59
2022/10/15 08:04:39;;;;;;;;;;;;;;;16.15;76.19;100304.84;86149;1291;94842;-60
2022/10/15 08:06:46;;;;;;;;;;;;;;;16.52;75.43;100303.05;86176;1294;80812;-59
2022/10/15 08:08:53;;;;;;;;;;;;;;;16.62;74.95;100305.58;86194;1290;82712;-60
2022/10/15 08:11:04;;;;;;;;;;;;;;;16.72;74.99;100303.04;86172;1296;98341;-60
2022/10/15 08:13:11;;;;;;;;;;;;;;;16.76;73.86;100303.56;86168;1296;88929;-56
2022/10/15 08:15:18;;;;;;;;;;;;;;;16.72;73.00;100302.11;86147;1289;93812;-55
2022/10/15 08:17:25;;;;;;;;;;;;;;;16.67;73.32;100306.33;86158;1289;79784;-51
2022/10/15 08:19:34;;;;;;;;;;;;;;;16.65;73.10;100304.27;86168;1295;79124;-57
2022/10/15 08:21:42;;;;;;;;;;;;;;;16.60;73.02;100305.46;86201;1291;97596;-55
2022/10/15 08:23:50;;;;;;;;;;;;;;;16.51;72.66;100306.54;86150;1290;88420;-56
2022/10/15 08:26:00;;;;;;;;;;;;;;;16.54;73.22;100309.73;86209;1297;94148;-56
2022/10/15 08:28:08;;;;;;;;;;;;;;;16.67;73.10;100305.78;86209;1288;78147;-59
2022/10/15 08:30:16;;;;;;;;;;;;;;;16.75;72.60;100304.67;86199;1281;81051;-58
2022/10/15 08:32:26;;;;;;;;;;;;;;;16.84;72.84;100301.44;86164;1290;97991;-57
2022/10/15 08:34:34;;;;;;;;;;;;;;;16.81;72.53;100296.94;86194;1288;89081;-56
2022/10/15 08:36:43;;;;;;;;;;;;;;;16.89;72.68;100301.97;86162;1290;96306;-59
2022/10/15 08:38:50;;;;;;;;;;;;;;;16.99;72.29;100300.58;86201;1296;79839;-59
2022/10/15 08:40:59;;;;;;;;;;;;;;;17.01;72.24;100300.46;86206;1291;82849;-60
2022/10/15 08:43:06;;;;;;;;;;;;;;;17.23;72.48;100294.14;86226;1288;99407;-56
2022/10/15 08:45:17;;;;;;;;;;;;;;;17.36;71.47;100296.61;86198;1295;88313;-56
2022/10/15 08:47:31;;;;;;;;;;;;;;;17.40;71.47;100288.14;86223;1290;94083;-55
2022/10/15 08:49:45;;;;;;;;;;;;;;;17.50;71.53;100288.82;86163;1291;80584;-59
2022/10/15 08:51:57;;;;;;;;;;;;;;;17.67;70.46;100285.31;86222;1290;82003;-54
2022/10/15 08:54:06;;;;;;;;;;;;;;;17.78;70.94;100276.21;86096;1290;100218;-56
2022/10/15 08:56:18;;;;;;;;;;;;;;;18.09;70.43;100279.35;86198;1288;88038;-55
2022/10/15 08:58:29;;;;;;;;;;;;;;;18.26;70.29;100276.39;86159;1290;94868;-56
2022/10/15 09:00:41;;;;;;;;;;;;;;;18.20;69.60;100277.94;86155;1290;80358;-56
2022/10/15 09:02:55;;;;;;;;;;;;;;;18.30;69.92;100276.94;86090;1296;81489;-57
2022/10/15 09:05:14;;;;;;;;;;;;;;;18.62;69.71;100276.23;86151;1296;97313;-56
2022/10/15 09:07:26;;;;;;;;;;;;;;;19.09;68.82;100273.48;86127;1288;88611;-57
2022/10/15 09:09:40;;;;;;;;;;;;;;;19.50;67.85;100277.91;86182;1291;93321;-56
2022/10/15 09:11:57;;;;;;;;;;;;;;;19.52;67.52;100277.29;86179;1293;77426;-57
2022/10/15 09:14:05;;;;;;;;;;;;;;;19.64;66.89;100280.88;86180;1290;81095;-58
2022/10/15 09:16:17;;;;;;;;;;;;;;;20.06;66.94;100279.99;86228;1295;97624;-59
2022/10/15 09:18:29;;;;;;;;;;;;;;;20.40;66.01;100277.94;86201;1291;86477;-59
2022/10/15 09:20:36;;;;;;;;;;;;;;;20.60;65.08;100283.60;86204;1290;94727;-58
2022/10/15 09:22:44;;;;;;;;;;;;;;;20.37;64.19;100284.04;86165;1290;79583;-58
2022/10/15 09:24:52;;;;;;;;;;;;;;;19.93;63.08;100281.84;86199;1294;81646;-60
2022/10/15 09:27:07;;;;;;;;;;;;;;;19.63;63.22;100281.95;86202;1296;98299;-58
2022/10/15 09:29:21;;;;;;;;;;;;;;;19.67;64.38;100285.13;86176;1296;88667;-60
2022/10/15 09:31:34;;;;;;;;;;;;;;;19.51;64.71;100288.95;86184;1290;94019;-56
2022/10/15 09:33:45;;;;;;;;;;;;;;;19.25;64.90;100282.46;86172;1295;80362;-57
2022/10/15 09:35:56;;;;;;;;;;;;;;;19.06;64.59;100287.95;86172;1291;81539;-59
2022/10/15 09:38:16;;;;;;;;;;;;;;;18.79;64.18;100286.64;86143;1291;99219;-56
2022/10/15 09:40:39;;;;;;;;;;;;;;;18.57;64.78;100289.29;86174;1296;89521;-56
2022/10/15 09:42:51;;;;;;;;;;;;;;;18.47;65.27;100287.11;86176;1292;95848;-60
2022/10/15 09:45:00;;;;;;;;;;;;;;;18.43;65.54;100285.45;86162;1290;79825;-58
2022/10/15 09:47:23;;;;;;;;;;;;;;;18.40;65.39;100286.11;86201;1290;81052;-58
2022/10/15 09:49:30;;;;;;;;;;;;;;;18.23;65.07;100280.52;86127;1290;97794;-59
2022/10/15 09:51:42;;;;;;;;;;;;;;;18.16;65.44;100283.11;86152;1290;89497;-58
2022/10/15 09:53:57;;;;;;;;;;;;;;;18.11;65.71;100280.10;86193;1290;93680;-57
2022/10/15 09:56:10;;;;;;;;;;;;;;;18.11;66.09;100281.20;86155;1294;80368;-55
2022/10/15 09:58:21;;;;;;;;;;;;;;;18.09;65.89;100281.07;86192;1296;82317;-59
2022/10/15 10:00:46;;;;;;;;;;;;;;;17.99;65.89;100278.75;86182;1294;98610;-58
2022/10/15 10:03:07;;;;;;;;;;;;;;;17.90;66.13;100280.70;86225;1290;88106;-56
2022/10/15 10:05:32;;;;;;;;;;;;;;;17.87;66.53;100278.10;86114;1296;94316;-57
2022/10/15 10:07:40;;;;;;;;;;;;;;;17.88;66.35;100276.27;86189;1290;79656;-58
2022/10/15 10:09:53;;;;;;;;;;;;;;;17.93;66.44;100270.96;86113;1290;81821;-58
2022/10/15 10:12:03;;;;;;;;;;;;;;;17.90;66.54;100266.36;86193;1290;96783;-57
2022/10/15 10:14:21;;;;;;;;;;;;;;;17.92;66.65;100269.90;86169;1297;88866;-57
2022/10/15 10:16:32;;;;;;;;;;;;;;;18.05;66.72;100264.45;86162;1297;93262;-56
2022/10/15 10:18:41;;;;;;;;;;;;;;;18.18;66.61;100260.86;86121;1292;80652;-56
2022/10/15 10:20:58;;;;;;;;;;;;;;;18.39;66.47;100260.95;86207;1288;79206;-57
2022/10/15 10:23:25;;;;;;;;;;;;;;;18.60;66.66;100257.22;86193;1296;98680;-55
2022/10/15 10:25:38;;;;;;;;;;;;;;;18.68;65.98;100254.02;86186;1288;88184;-57
2022/10/15 10:27:46;;;;;;;;;;;;;;;18.68;65.71;100257.42;86147;1296;95391;-59
2022/10/15 10:30:07;;;;;;;;;;;;;;;18.75;65.73;100254.01;86174;1295;80652;-59
2022/10/15 10:32:20;;;;;;;;;;;;;;;18.75;64.93;100255.42;86162;1290;83050;-60
2022/10/15 10:34:31;;;;;;;;;;;;;;;18.80;65.37;100254.25;86145;1290;97934;-59
2022/10/15 10:36:39;;;;;;;;;;;;;;;18.88;65.24;100250.52;86162;1297;88367;-60
2022/10/15 10:39:01;;;;;;;;;;;;;;;19.03;65.19;100244.96;86134;1290;93385;-60
2022/10/15 10:41:12;;;;;;;;;;;;;;;19.05;64.92;100245.49;86159;1290;81167;-59
2022/10/15 10:43:26;;;;;;;;;;;;;;;19.10;64.98;100250.58;86179;1290;82594;-58
2022/10/15 10:45:35;;;;;;;;;;;;;;;19.16;64.81;100252.40;86224;1296;99280;-56
2022/10/15 10:47:42;;;;;;;;;;;;;;;19.09;64.41;100251.03;86217;1296;88199;-53
2022/10/15 10:49:54;;;;;;;;;;;;;;;18.96;64.12;100253.71;86111;1297;94543;-57
2022/10/15 10:52:07;;;;;;;;;;;;;;;18.85;64.11;100250.96;86171;1290;77872;-60
2022/10/15 10:54:16;;;;;;;;;;;;;;;18.79;64.19;100245.38;86245;1291;82302;-60
2022/10/15 10:56:28;;;;;;;;;;;;;;;18.70;64.05;100247.12;86220;1295;97538;-60
2022/10/15 10:58:38;;;;;;;;;;;;;;;18.62;64.56;100241.94;86223;1293;87479;-59
2022/10/15 11:00:49;;;;;;;;;;;;;;;18.57;64.35;100243.44;86146;1291;95087;-56
2022/10/15 11:03:01;;;;;;;;;;;;;;;18.48;63.94;100245.48;86182;1288;78289;-56
2022/10/15 11:05:13;;;;;;;;;;;;;;;18.36;63.85;100243.42;86088;1290;81709;-56
2022/10/15 11:07:36;;;;;;;;;;;;;;;18.30;63.85;100241.45;86181;1294;96842;-59
2022/10/15 11:09:57;;;;;;;;;;;;;;;18.25;63.72;100245.79;86094;1291;87470;-59